WMKC/KBR METAR and TAF weather

Enter ICAO airport designator
Station Type Date Time Source
WMKC METAR 2021/05/10 01:00 UTC NOAA

WMKC 100100Z 20004KT 130V300 9000 FEW018 29/26 Q1008


Station Type Date Time Source
WMKC Decoded METAR 2021/05/10 01:00 UTC NOAA

Kota Bharu, Malaysia (WMKC) 06-10N 102-17E 5M
May 09, 2021 - 09:00 PM EDT / 2021.05.10 0100 UTC
Wind: from the SSW (200 degrees) at 5 MPH (4 KT) (direction variable):0
Visibility: 5 mile(s):0
Sky conditions: mostly clear
Temperature: 84 F (29 C)
Dew Point: 78 F (26 C)
Relative Humidity: 83%
Pressure (altimeter): 29.77 in. Hg (1008 hPa)
ob: WMKC 100100Z 20004KT 130V300 9000 FEW018 29/26 Q1008
cycle: 1

Station Type Date Time Source
WMKC TAF 2021/05/09 18:00 UTC NOAA

TAF WMKC 091700Z 0918/1018 VRB03KT 9999 FEW020
BECMG 1002/1004 06006KT FEW018
BECMG 1011/1012 VRB03KT FEW020

Example: see airport list